Terminal Aerodrome Forecast
Issued by NWS

Home | Current Version | Previous Version | Text Only | Print | Product List | Glossary On
Versions: 1 2 3 4 5 6 7 8 9 10 11 12 13 14 15 16 17 18 19 20 21 22 23 24 25
000
FTUS45 KREV 202300
TAFCXP
TAF
KCXP 202325Z 2100/2124 25014G24KT P6SM FEW120
     FM210300 29008KT P6SM SCT120
     FM210900 VRB03KT P6SM FEW120
     FM212200 25012G22KT P6SM SKC=

USA.gov is the U.S. government's official web portal to all federal, state and local government web resources and services.